createdAt,value
2018-10-16T00:00:19.950Z,99.99
2018-10-16T00:01:19.927Z,99.99
2018-10-16T00:02:19.899Z,99.99
2018-10-16T00:03:19.880Z,99.99
2018-10-16T00:04:19.860Z,99.99
2018-10-16T00:05:19.838Z,99.99
2018-10-16T00:06:19.815Z,99.99
2018-10-16T00:07:19.797Z,99.99
2018-10-16T00:08:19.774Z,99.99
2018-10-16T00:09:19.751Z,99.99
2018-10-16T00:10:19.729Z,99.99
2018-10-16T00:11:19.716Z,99.99
2018-10-16T00:12:19.692Z,99.99
2018-10-16T00:13:19.668Z,99.99
2018-10-16T00:14:19.992Z,99.99
2018-10-16T00:15:19.626Z,99.99
2018-10-16T00:16:19.609Z,99.99
2018-10-16T00:17:19.591Z,99.99
2018-10-16T00:18:19.560Z,99.99
2018-10-16T00:19:19.544Z,99.99
2018-10-16T00:20:19.521Z,99.99
2018-10-16T00:21:19.604Z,99.99
2018-10-16T00:22:19.480Z,99.99
2018-10-16T00:23:19.455Z,99.99
2018-10-16T00:24:20.388Z,99.99
2018-10-16T00:25:19.420Z,99.99
2018-10-16T00:26:19.398Z,99.99
2018-10-16T00:27:19.371Z,99.99
2018-10-16T00:28:19.350Z,99.99
2018-10-16T00:29:19.330Z,99.99
2018-10-16T00:30:19.311Z,99.99
2018-10-16T00:31:19.289Z,99.99
2018-10-16T00:32:19.265Z,99.99
2018-10-16T00:33:19.249Z,99.99
2018-10-16T00:34:19.225Z,99.99
2018-10-16T00:35:19.221Z,99.99
2018-10-16T00:36:19.542Z,99.99
2018-10-16T00:37:19.155Z,99.99
2018-10-16T00:38:19.136Z,99.99
2018-10-16T00:39:19.117Z,99.99
2018-10-16T00:40:19.091Z,99.99
2018-10-16T00:41:19.071Z,99.99
2018-10-16T00:42:19.054Z,99.99
2018-10-16T00:43:19.033Z,99.99
2018-10-16T00:44:19.020Z,99.99
2018-10-16T00:45:18.985Z,99.99
2018-10-16T00:46:18.978Z,99.99
2018-10-16T00:47:18.945Z,99.99
2018-10-16T00:48:18.933Z,99.99
2018-10-16T00:49:18.897Z,99.99
2018-10-16T00:50:18.882Z,99.99
2018-10-16T00:51:18.860Z,99.99
2018-10-16T00:52:18.841Z,99.99
2018-10-16T00:53:18.822Z,99.99
2018-10-16T00:54:18.797Z,99.99
2018-10-16T00:55:18.774Z,99.99
2018-10-16T00:56:18.750Z,99.99
2018-10-16T00:57:18.729Z,99.99
2018-10-16T00:58:18.708Z,99.99
2018-10-16T00:59:18.686Z,99.99
2018-10-16T01:00:18.667Z,99.99
2018-10-16T01:01:18.649Z,99.99
2018-10-16T01:02:18.625Z,99.99
2018-10-16T01:03:18.604Z,99.99
2018-10-16T01:04:18.575Z,99.99
2018-10-16T01:05:18.562Z,99.99
2018-10-16T01:06:18.537Z,99.99
2018-10-16T01:07:18.518Z,99.99
2018-10-16T01:08:18.520Z,99.99
2018-10-16T01:09:18.484Z,99.99
2018-10-16T01:10:18.453Z,99.99
2018-10-16T01:11:18.433Z,99.99
2018-10-16T01:12:18.404Z,99.99
2018-10-16T01:13:18.448Z,99.99
2018-10-16T01:14:18.366Z,99.99
2018-10-16T01:15:18.341Z,99.99
2018-10-16T01:16:18.321Z,99.99
2018-10-16T01:17:18.302Z,99.99
2018-10-16T01:18:18.273Z,99.99
2018-10-16T01:19:18.260Z,99.99
2018-10-16T01:20:18.238Z,99.99
2018-10-16T01:21:18.212Z,99.99
2018-10-16T01:22:18.189Z,99.99
2018-10-16T01:23:18.167Z,99.99
2018-10-16T01:24:18.148Z,99.99
2018-10-16T01:25:18.122Z,99.99
2018-10-16T01:26:18.103Z,99.99
2018-10-16T01:27:18.087Z,99.99
2018-10-16T01:28:18.058Z,99.99
2018-10-16T01:29:18.039Z,99.99
2018-10-16T01:30:18.020Z,99.99
2018-10-16T01:31:18.000Z,99.99
2018-10-16T01:32:17.978Z,99.99
2018-10-16T01:33:17.956Z,99.99
2018-10-16T01:34:17.930Z,99.99
2018-10-16T01:35:17.914Z,99.99
2018-10-16T01:36:17.884Z,99.99
2018-10-16T01:37:17.861Z,99.99
2018-10-16T01:38:17.843Z,99.99
2018-10-16T01:39:17.829Z,99.99
2018-10-16T01:40:17.807Z,99.99
2018-10-16T01:41:17.785Z,99.99
2018-10-16T01:42:17.762Z,99.99
2018-10-16T01:43:17.732Z,99.99
2018-10-16T01:44:17.720Z,99.99
2018-10-16T01:45:17.740Z,99.99
2018-10-16T01:46:17.668Z,99.99
2018-10-16T01:47:17.645Z,99.99
2018-10-16T01:48:17.623Z,99.99
2018-10-16T01:49:17.610Z,99.99
2018-10-16T01:50:17.590Z,99.99
2018-10-16T01:51:17.560Z,99.99
2018-10-16T01:52:17.537Z,99.99
2018-10-16T01:53:17.525Z,99.99
2018-10-16T01:54:17.505Z,99.99
2018-10-16T01:55:17.473Z,99.99
2018-10-16T01:56:17.451Z,99.99
2018-10-16T01:57:17.428Z,99.99
2018-10-16T01:58:17.406Z,99.99
2018-10-16T01:59:17.393Z,99.99
2018-10-16T02:00:17.371Z,99.99
2018-10-16T02:01:17.352Z,99.99
2018-10-16T02:02:17.320Z,99.99
2018-10-16T02:03:17.307Z,99.99
2018-10-16T02:04:17.292Z,99.99
2018-10-16T02:05:17.256Z,99.99
2018-10-16T02:06:17.234Z,99.99
2018-10-16T02:07:17.211Z,99.99
2018-10-16T02:08:17.196Z,99.99
2018-10-16T02:09:17.173Z,99.99
2018-10-16T02:10:17.151Z,99.99
2018-10-16T02:11:17.128Z,99.99
2018-10-16T02:12:17.109Z,99.99
2018-10-16T02:13:17.081Z,99.99
2018-10-16T02:14:17.065Z,99.99
2018-10-16T02:15:17.036Z,99.99
2018-10-16T02:16:17.040Z,99.99
2018-10-16T02:17:17.010Z,99.99
2018-10-16T02:18:16.979Z,99.99
2018-10-16T02:19:16.957Z,99.99
2018-10-16T02:20:16.934Z,99.99
2018-10-16T02:21:16.905Z,99.99
2018-10-16T02:22:16.893Z,99.99
2018-10-16T02:23:16.871Z,99.99
2018-10-16T02:24:16.843Z,99.99
2018-10-16T02:25:16.821Z,99.99
2018-10-16T02:26:16.806Z,99.99
2018-10-16T02:27:16.775Z,99.99
2018-10-16T02:28:16.761Z,99.99
2018-10-16T02:29:16.734Z,99.99
2018-10-16T02:30:16.715Z,99.99
2018-10-16T02:31:16.688Z,99.99
2018-10-16T02:32:16.672Z,99.99
2018-10-16T02:33:16.645Z,99.99
2018-10-16T02:34:16.635Z,99.99
2018-10-16T02:35:16.601Z,99.99
2018-10-16T02:36:16.584Z,99.99
2018-10-16T02:37:16.563Z,99.99
2018-10-16T02:38:16.534Z,99.99
2018-10-16T02:39:16.518Z,99.99
2018-10-16T02:40:16.492Z,99.99
2018-10-16T02:41:16.478Z,99.99
2018-10-16T02:42:16.454Z,99.99
2018-10-16T02:43:16.425Z,99.99
2018-10-16T02:44:16.425Z,99.99
2018-10-16T02:45:16.389Z,99.99
2018-10-16T02:46:16.366Z,99.99
2018-10-16T02:47:16.337Z,99.99
2018-10-16T02:48:16.314Z,99.99
2018-10-16T02:49:16.307Z,99.99
2018-10-16T02:50:16.275Z,99.99
2018-10-16T02:51:16.253Z,99.99
2018-10-16T02:52:16.233Z,99.99
2018-10-16T02:53:16.211Z,99.99
2018-10-16T02:54:16.182Z,99.99
2018-10-16T02:55:16.162Z,99.99
2018-10-16T02:56:16.147Z,99.99
2018-10-16T02:57:16.121Z,99.99
2018-10-16T02:58:16.099Z,99.99
2018-10-16T02:59:16.072Z,99.99
2018-10-16T03:00:16.051Z,99.99
2018-10-16T03:01:16.028Z,99.99
2018-10-16T03:02:16.013Z,99.99
2018-10-16T03:03:15.985Z,99.99
2018-10-16T03:04:15.960Z,99.99
2018-10-16T03:05:15.943Z,99.99
2018-10-16T03:06:15.922Z,99.99
2018-10-16T03:07:15.896Z,99.99
2018-10-16T03:08:15.935Z,99.99
2018-10-16T03:09:15.854Z,99.99
2018-10-16T03:10:15.830Z,99.99
2018-10-16T03:11:15.813Z,99.99
2018-10-16T03:12:15.788Z,99.99
2018-10-16T03:13:15.761Z,99.99
2018-10-16T03:14:15.745Z,99.99
2018-10-16T03:15:15.716Z,99.99
2018-10-16T03:16:15.700Z,99.99
2018-10-16T03:17:15.680Z,99.99
2018-10-16T03:18:15.655Z,99.99
2018-10-16T03:19:15.636Z,99.99
2018-10-16T03:20:15.616Z,99.99
2018-10-16T03:21:15.584Z,99.99
2018-10-16T03:22:15.566Z,99.99
2018-10-16T03:23:15.540Z,99.99
2018-10-16T03:24:15.518Z,99.99
2018-10-16T03:25:15.495Z,99.99
2018-10-16T03:26:15.478Z,99.99
2018-10-16T03:27:15.455Z,99.99
2018-10-16T03:28:15.434Z,99.99
2018-10-16T03:29:15.424Z,99.99
2018-10-16T03:30:15.388Z,99.99
2018-10-16T03:31:15.366Z,99.99
2018-10-16T03:32:15.341Z,99.99
2018-10-16T03:33:15.320Z,99.99
2018-10-16T03:34:15.300Z,99.99
2018-10-16T03:35:15.278Z,99.99
2018-10-16T03:36:15.256Z,99.99
2018-10-16T03:37:15.229Z,99.99
2018-10-16T03:38:15.216Z,99.99
2018-10-16T03:39:15.192Z,99.99
2018-10-16T03:40:15.165Z,99.99
2018-10-16T03:41:15.145Z,99.99
2018-10-16T03:42:15.122Z,99.99
2018-10-16T03:43:15.092Z,99.99
2018-10-16T03:44:15.074Z,99.99
2018-10-16T03:45:15.052Z,99.99
2018-10-16T03:46:15.032Z,99.99
2018-10-16T03:47:15.017Z,99.99
2018-10-16T03:48:14.985Z,99.99
2018-10-16T03:49:14.965Z,99.99
2018-10-16T03:50:14.946Z,99.99
2018-10-16T03:51:14.920Z,99.99
2018-10-16T03:52:14.904Z,99.99
2018-10-16T03:53:14.873Z,99.99
2018-10-16T03:54:14.856Z,99.99
2018-10-16T03:55:14.834Z,99.99
2018-10-16T03:56:14.811Z,99.99
2018-10-16T03:57:14.848Z,99.99
2018-10-16T03:58:14.763Z,99.99
2018-10-16T03:59:14.744Z,99.99
2018-10-16T04:00:14.716Z,99.99
2018-10-16T04:01:14.696Z,99.99
2018-10-16T04:02:14.678Z,99.99
2018-10-16T04:03:14.656Z,99.99
2018-10-16T04:04:14.639Z,99.99
2018-10-16T04:05:14.607Z,99.99
2018-10-16T04:06:14.583Z,99.99
2018-10-16T04:07:14.563Z,99.99
2018-10-16T04:08:14.544Z,99.99
2018-10-16T04:09:14.515Z,99.99
2018-10-16T04:10:14.496Z,99.99
2018-10-16T04:11:14.477Z,99.99
2018-10-16T04:12:14.448Z,99.99
2018-10-16T04:13:14.426Z,99.99
2018-10-16T04:14:14.410Z,99.99
2018-10-16T04:15:14.379Z,99.99
2018-10-16T04:16:14.369Z,99.99
2018-10-16T04:17:14.340Z,99.99
2018-10-16T04:18:14.322Z,99.99
2018-10-16T04:19:14.296Z,99.99
2018-10-16T04:20:14.278Z,99.99
2018-10-16T04:21:14.251Z,99.99
2018-10-16T04:22:14.240Z,99.99
2018-10-16T04:23:14.204Z,99.99
2018-10-16T04:24:14.183Z,99.99
2018-10-16T04:25:14.162Z,99.99
2018-10-16T04:26:14.137Z,99.99
2018-10-16T04:27:14.120Z,99.99
2018-10-16T04:28:14.092Z,99.99
2018-10-16T04:29:14.128Z,99.99
2018-10-16T04:30:14.051Z,99.99
2018-10-16T04:31:14.032Z,99.99
2018-10-16T04:32:14.007Z,99.99
2018-10-16T04:33:13.981Z,99.99
2018-10-16T04:34:13.965Z,99.99
2018-10-16T04:35:13.942Z,99.99
2018-10-16T04:36:13.924Z,99.99
2018-10-16T04:37:13.907Z,99.99
2018-10-16T04:38:13.875Z,99.99
2018-10-16T04:39:13.846Z,99.99
2018-10-16T04:40:13.834Z,99.99
2018-10-16T04:41:13.811Z,99.99
2018-10-16T04:42:13.782Z,99.99
2018-10-16T04:43:13.759Z,99.99
2018-10-16T04:44:13.737Z,99.99
2018-10-16T04:45:13.727Z,99.99
2018-10-16T04:46:13.696Z,99.99
2018-10-16T04:47:13.672Z,99.99
2018-10-16T04:48:13.653Z,99.99
2018-10-16T04:49:13.630Z,99.99
2018-10-16T04:50:13.607Z,99.99
2018-10-16T04:51:13.595Z,99.99
2018-10-16T04:52:13.557Z,99.99
2018-10-16T04:53:13.541Z,99.99
2018-10-16T04:54:13.519Z,99.99
2018-10-16T04:55:13.601Z,99.99
2018-10-16T04:56:13.467Z,99.99
2018-10-16T04:57:13.451Z,99.99
2018-10-16T04:58:13.429Z,99.99
2018-10-16T04:59:13.406Z,99.99
2018-10-16T05:00:13.377Z,99.99
2018-10-16T05:01:13.368Z,99.99
2018-10-16T05:02:13.336Z,99.99
2018-10-16T05:03:13.319Z,99.99
2018-10-16T05:04:13.317Z,99.99
2018-10-16T05:05:13.276Z,99.99
2018-10-16T05:06:13.252Z,99.99
2018-10-16T05:07:13.224Z,99.99
2018-10-16T05:08:13.249Z,99.99
2018-10-16T05:09:13.274Z,99.99
2018-10-16T05:10:13.162Z,99.99
2018-10-16T05:11:13.136Z,99.99
2018-10-16T05:12:13.114Z,99.99
2018-10-16T05:13:13.150Z,99.99
2018-10-16T05:14:13.066Z,99.99
2018-10-16T05:15:13.065Z,99.99
2018-10-16T05:16:13.028Z,99.99
2018-10-16T05:17:13.005Z,99.99
2018-10-16T05:18:12.979Z,99.99
2018-10-16T05:19:13.032Z,99.99
2018-10-16T05:20:12.932Z,99.99
2018-10-16T05:21:12.916Z,99.99
2018-10-16T05:22:12.897Z,99.99
2018-10-16T05:23:12.869Z,99.99
2018-10-16T05:24:12.944Z,99.99
2018-10-16T05:25:12.828Z,99.99
2018-10-16T05:26:12.866Z,99.99
2018-10-16T05:27:12.783Z,99.99
2018-10-16T05:28:12.760Z,99.99
2018-10-16T05:29:12.735Z,99.99
2018-10-16T05:30:12.710Z,99.99
2018-10-16T05:31:12.822Z,99.99
2018-10-16T05:32:12.669Z,99.99
2018-10-16T05:33:12.649Z,99.99
2018-10-16T05:34:12.648Z,99.99
2018-10-16T05:35:12.604Z,99.99
2018-10-16T05:36:12.581Z,99.99
2018-10-16T05:37:12.555Z,99.99
2018-10-16T05:38:12.536Z,99.99
2018-10-16T05:39:12.581Z,99.99
2018-10-16T05:40:12.492Z,99.99
2018-10-16T05:41:12.470Z,99.99
2018-10-16T05:42:12.452Z,99.99
2018-10-16T05:43:12.421Z,99.99
2018-10-16T05:44:12.396Z,99.99
2018-10-16T05:45:12.375Z,99.99
2018-10-16T05:46:12.360Z,99.99
2018-10-16T05:47:12.341Z,99.99
2018-10-16T05:48:12.311Z,99.99
2018-10-16T05:49:12.292Z,99.99
2018-10-16T05:50:12.269Z,99.99
2018-10-16T05:51:12.249Z,99.99
2018-10-16T05:52:12.226Z,99.99
2018-10-16T05:53:12.198Z,99.99
2018-10-16T05:54:12.196Z,99.99
2018-10-16T05:55:12.155Z,99.99
2018-10-16T05:56:12.134Z,99.99
2018-10-16T05:57:12.112Z,99.99
2018-10-16T05:58:12.090Z,99.99
2018-10-16T05:59:12.068Z,99.99
2018-10-16T06:00:12.042Z,99.99
2018-10-16T06:01:12.021Z,99.99
2018-10-16T06:02:12.001Z,99.99
2018-10-16T06:03:11.981Z,99.99
2018-10-16T06:04:11.963Z,99.99
2018-10-16T06:05:11.931Z,99.99
2018-10-16T06:06:11.909Z,99.99
2018-10-16T06:07:11.891Z,99.99
2018-10-16T06:08:11.873Z,99.99
2018-10-16T06:09:11.840Z,99.99
2018-10-16T06:10:11.818Z,99.99
2018-10-16T06:11:11.804Z,99.99
2018-10-16T06:12:11.831Z,99.99
2018-10-16T06:13:11.751Z,99.99
2018-10-16T06:14:11.731Z,99.99
2018-10-16T06:15:11.709Z,99.99
2018-10-16T06:16:11.773Z,99.99
2018-10-16T06:17:11.674Z,99.99
2018-10-16T06:18:11.639Z,99.99
2018-10-16T06:19:11.617Z,99.99
2018-10-16T06:20:11.646Z,99.99
2018-10-16T06:21:11.579Z,99.99
2018-10-16T06:22:11.552Z,99.99
2018-10-16T06:23:11.530Z,99.99
2018-10-16T06:24:11.517Z,99.99
2018-10-16T06:25:11.489Z,99.99
2018-10-16T06:26:11.459Z,99.99
2018-10-16T06:27:11.440Z,99.99
2018-10-16T06:28:11.415Z,99.99
2018-10-16T06:29:11.392Z,99.99
2018-10-16T06:30:11.452Z,99.99
2018-10-16T06:31:11.347Z,99.99
2018-10-16T06:32:11.328Z,99.99
2018-10-16T06:33:11.312Z,99.99
2018-10-16T06:34:11.282Z,99.99
2018-10-16T06:35:11.261Z,99.99
2018-10-16T06:36:11.238Z,99.99
2018-10-16T06:37:11.222Z,99.99
2018-10-16T06:38:11.193Z,99.99
2018-10-16T06:39:11.170Z,99.99
2018-10-16T06:40:11.153Z,99.99
2018-10-16T06:41:11.209Z,99.99
2018-10-16T06:42:11.107Z,99.99
2018-10-16T06:43:11.084Z,99.99
2018-10-16T06:44:11.087Z,99.99
2018-10-16T06:45:11.042Z,99.99
2018-10-16T06:46:11.023Z,99.99
2018-10-16T06:47:11.059Z,99.99
2018-10-16T06:48:11.177Z,99.99
2018-10-16T06:49:10.950Z,99.99
2018-10-16T06:50:10.933Z,99.99
2018-10-16T06:51:10.908Z,99.99
2018-10-16T06:52:10.892Z,99.99
2018-10-16T06:53:10.874Z,99.99
2018-10-16T06:54:10.841Z,99.99
2018-10-16T06:55:10.894Z,99.99
2018-10-16T06:56:10.803Z,99.99
2018-10-16T06:57:10.773Z,99.99
2018-10-16T06:58:10.756Z,99.99
2018-10-16T06:59:10.737Z,99.99
2018-10-16T07:00:10.773Z,99.99
2018-10-16T07:01:10.693Z,99.99
2018-10-16T07:02:10.664Z,99.99
2018-10-16T07:03:10.642Z,99.99
2018-10-16T07:04:10.619Z,99.99
2018-10-16T07:05:10.605Z,99.99
2018-10-16T07:06:10.577Z,99.99
2018-10-16T07:07:10.698Z,99.99
2018-10-16T07:08:10.539Z,99.99
2018-10-16T07:09:10.516Z,99.99
2018-10-16T07:10:10.489Z,99.99
2018-10-16T07:11:10.477Z,99.99
2018-10-16T07:12:10.451Z,99.99
2018-10-16T07:13:10.431Z,99.99
2018-10-16T07:14:10.409Z,99.99
2018-10-16T07:15:10.507Z,99.99
2018-10-16T07:16:10.363Z,99.99
2018-10-16T07:17:10.339Z,99.99
2018-10-16T07:18:10.323Z,99.99
2018-10-16T07:19:10.300Z,99.99
2018-10-16T07:20:10.286Z,99.99
2018-10-16T07:21:10.291Z,99.99
2018-10-16T07:22:10.239Z,99.99
2018-10-16T07:23:10.264Z,99.99
2018-10-16T07:24:10.195Z,99.99
2018-10-16T07:25:10.177Z,99.99
2018-10-16T07:26:10.144Z,99.99
2018-10-16T07:27:10.127Z,99.99
2018-10-16T07:28:10.109Z,99.99
2018-10-16T07:29:10.106Z,99.99
2018-10-16T07:30:10.089Z,99.99
2018-10-16T07:31:10.041Z,99.99
2018-10-16T07:32:10.026Z,99.99
2018-10-16T07:33:09.997Z,99.99
2018-10-16T07:34:09.981Z,99.99
2018-10-16T07:35:09.976Z,99.99
2018-10-16T07:36:09.937Z,99.99
2018-10-16T07:37:09.939Z,99.99
2018-10-16T07:38:10.012Z,99.99
2018-10-16T07:39:09.875Z,99.99
2018-10-16T07:40:09.854Z,99.99
2018-10-16T07:41:09.860Z,99.99
2018-10-16T07:42:09.812Z,99.99
2018-10-16T07:43:09.819Z,99.99
2018-10-16T07:44:09.782Z,99.99
2018-10-16T07:45:09.790Z,99.99
2018-10-16T07:46:09.736Z,99.99
2018-10-16T07:47:09.720Z,99.99
2018-10-16T07:48:09.701Z,99.99
2018-10-16T07:49:09.705Z,99.99
2018-10-16T07:50:09.656Z,99.99
2018-10-16T07:51:09.643Z,99.99
2018-10-16T07:52:09.628Z,99.99
2018-10-16T07:53:09.606Z,99.99
2018-10-16T07:54:09.580Z,99.99
2018-10-16T07:55:09.564Z,99.63
2018-10-16T07:56:09.542Z,99.99
2018-10-16T07:57:09.595Z,99.10
2018-10-16T07:58:09.513Z,98.05
2018-10-16T07:59:09.519Z,94.93
2018-10-16T08:00:09.479Z,93.68
2018-10-16T08:01:09.457Z,91.75
2018-10-16T08:02:09.443Z,91.03
2018-10-16T08:03:09.440Z,91.32
2018-10-16T08:04:09.409Z,90.31
2018-10-16T08:05:09.388Z,90.06
2018-10-16T08:06:09.380Z,88.04
2018-10-16T08:07:09.354Z,86.74
2018-10-16T08:08:09.354Z,85.43
2018-10-16T08:09:09.326Z,83.99
2018-10-16T08:10:09.306Z,84.80
2018-10-16T08:11:09.336Z,83.16
2018-10-16T08:12:09.272Z,82.53
2018-10-16T08:13:09.262Z,81.95
2018-10-16T08:14:09.240Z,81.47
2018-10-16T08:15:09.228Z,81.95
2018-10-16T08:16:09.214Z,81.02
2018-10-16T08:17:09.263Z,81.02
2018-10-16T08:18:09.179Z,81.02
2018-10-16T08:19:09.170Z,80.06
2018-10-16T08:20:09.157Z,80.64
2018-10-16T08:21:09.138Z,80.26
2018-10-16T08:22:09.122Z,80.83
2018-10-16T08:23:09.106Z,81.02
2018-10-16T08:24:09.096Z,80.93
2018-10-16T08:25:09.080Z,81.02
2018-10-16T08:26:09.070Z,80.16
2018-10-16T08:27:09.051Z,79.04
2018-10-16T08:28:09.041Z,76.43
2018-10-16T08:29:09.029Z,77.53
2018-10-16T08:30:09.094Z,77.00
2018-10-16T08:31:09.044Z,74.10
2018-10-16T08:32:08.987Z,72.36
2018-10-16T08:33:08.968Z,72.13
2018-10-16T08:34:08.990Z,75.64
2018-10-16T08:35:08.940Z,75.35
2018-10-16T08:36:09.100Z,73.65
2018-10-16T08:37:09.025Z,72.20
2018-10-16T08:38:08.912Z,74.55
2018-10-16T08:39:08.901Z,72.52
2018-10-16T08:40:08.885Z,72.42
2018-10-16T08:41:08.870Z,68.21
2018-10-16T08:42:08.857Z,69.17
2018-10-16T08:43:08.844Z,66.05
2018-10-16T08:44:08.832Z,66.50
2018-10-16T08:45:08.874Z,68.66
2018-10-16T08:46:08.809Z,66.30
2018-10-16T08:47:08.796Z,68.14
2018-10-16T08:48:08.777Z,68.95
2018-10-16T08:49:08.777Z,70.24
2018-10-16T08:50:08.755Z,71.53
2018-10-16T08:51:08.745Z,68.05
2018-10-16T08:52:08.732Z,68.73
2018-10-16T08:53:08.719Z,66.98
2018-10-16T08:54:08.710Z,65.92
2018-10-16T08:55:08.804Z,65.34
2018-10-16T08:56:08.691Z,67.08
2018-10-16T08:57:08.689Z,68.76
2018-10-16T08:58:08.664Z,67.88
2018-10-16T08:59:08.662Z,65.14
2018-10-16T09:00:08.646Z,64.92
2018-10-16T09:01:08.633Z,66.37
2018-10-16T09:02:08.624Z,65.17
2018-10-16T09:03:08.604Z,66.72
2018-10-16T09:04:08.601Z,67.82
2018-10-16T09:05:08.582Z,64.95
2018-10-16T09:06:08.579Z,67.08
2018-10-16T09:07:08.563Z,67.98
2018-10-16T09:08:08.559Z,65.30
2018-10-16T09:09:08.543Z,65.27
2018-10-16T09:10:08.528Z,67.14
2018-10-16T09:11:08.520Z,65.50
2018-10-16T09:12:08.505Z,65.08
2018-10-16T09:13:08.536Z,65.01
2018-10-16T09:14:08.572Z,64.62
2018-10-16T09:15:08.479Z,63.08
2018-10-16T09:16:08.461Z,64.14
2018-10-16T09:17:08.454Z,64.72
2018-10-16T09:18:08.441Z,63.89
2018-10-16T09:19:08.435Z,63.27
2018-10-16T09:20:08.421Z,64.43
2018-10-16T09:21:08.428Z,64.43
2018-10-16T09:22:08.393Z,65.30
2018-10-16T09:23:08.392Z,64.14
2018-10-16T09:24:08.391Z,66.17
2018-10-16T09:25:08.438Z,66.56
2018-10-16T09:26:08.355Z,64.04
2018-10-16T09:27:08.361Z,64.89
2018-10-16T09:28:08.339Z,64.50
2018-10-16T09:29:08.320Z,65.17
2018-10-16T09:30:08.316Z,66.56
2018-10-16T09:31:08.366Z,64.17
2018-10-16T09:32:08.293Z,63.40
2018-10-16T09:33:08.279Z,63.34
2018-10-16T09:34:08.268Z,63.59
2018-10-16T09:35:08.270Z,63.62
2018-10-16T09:36:08.249Z,61.40
2018-10-16T09:37:08.236Z,60.62
2018-10-16T09:38:08.291Z,61.69
2018-10-16T09:39:08.217Z,62.01
2018-10-16T09:40:08.211Z,61.30
2018-10-16T09:41:08.201Z,62.37
2018-10-16T09:42:08.184Z,63.11
2018-10-16T09:43:08.175Z,63.21
2018-10-16T09:44:08.166Z,63.76
2018-10-16T09:45:08.179Z,64.34
2018-10-16T09:46:08.147Z,65.66
2018-10-16T09:47:08.137Z,64.69
2018-10-16T09:48:08.169Z,64.89
2018-10-16T09:49:08.115Z,67.43
2018-10-16T09:50:08.122Z,63.85
2018-10-16T09:51:08.096Z,64.72
2018-10-16T09:52:08.094Z,65.01
2018-10-16T09:53:08.078Z,65.59
2018-10-16T09:54:08.074Z,63.31
2018-10-16T09:55:08.062Z,62.07
2018-10-16T09:56:08.054Z,63.07
2018-10-16T09:57:08.040Z,62.82
2018-10-16T09:58:08.036Z,59.91
2018-10-16T09:59:08.023Z,61.46
2018-10-16T10:00:08.020Z,60.30
2018-10-16T10:01:08.004Z,58.16
2018-10-16T10:02:07.995Z,59.36
2018-10-16T10:03:07.992Z,58.48
2018-10-16T10:04:07.983Z,57.90
2018-10-16T10:05:07.970Z,58.45
2018-10-16T10:06:07.965Z,58.00
2018-10-16T10:07:07.954Z,56.76
2018-10-16T10:08:07.947Z,56.83
2018-10-16T10:09:07.934Z,56.76
2018-10-16T10:10:07.931Z,56.54
2018-10-16T10:11:08.016Z,58.09
2018-10-16T10:12:07.916Z,57.09
2018-10-16T10:13:07.899Z,57.09
2018-10-16T10:14:07.899Z,56.41
2018-10-16T10:15:07.889Z,57.68
2018-10-16T10:16:07.883Z,57.17
2018-10-16T10:17:07.877Z,57.19
2018-10-16T10:18:07.868Z,57.97
2018-10-16T10:19:07.854Z,59.61
2018-10-16T10:20:07.845Z,59.16
2018-10-16T10:21:07.838Z,58.39
2018-10-16T10:22:07.832Z,56.83
2018-10-16T10:23:07.847Z,57.42
2018-10-16T10:24:07.819Z,56.64
2018-10-16T10:25:07.871Z,55.31
2018-10-16T10:26:07.810Z,55.60
2018-10-16T10:27:07.806Z,55.11
2018-10-16T10:28:07.790Z,59.16
2018-10-16T10:29:07.781Z,59.22
2018-10-16T10:30:07.777Z,57.83
2018-10-16T10:31:07.776Z,56.47
2018-10-16T10:32:07.771Z,58.51
2018-10-16T10:33:07.755Z,55.73
2018-10-16T10:34:07.750Z,59.64
2018-10-16T10:35:07.745Z,53.97
2018-10-16T10:36:07.736Z,54.78
2018-10-16T10:37:07.741Z,56.79
2018-10-16T10:38:07.723Z,56.50
2018-10-16T10:39:07.713Z,54.56
2018-10-16T10:40:07.713Z,56.98
2018-10-16T10:41:07.722Z,54.85
2018-10-16T10:42:07.732Z,54.46
2018-10-16T10:43:07.694Z,53.00
2018-10-16T10:44:07.688Z,53.81
2018-10-16T10:45:07.691Z,57.79
2018-10-16T10:46:07.671Z,55.88
2018-10-16T10:47:07.675Z,54.22
2018-10-16T10:48:07.665Z,52.45
2018-10-16T10:49:07.662Z,51.77
2018-10-16T10:50:07.767Z,55.19
2018-10-16T10:51:08.071Z,55.31
2018-10-16T10:52:07.644Z,56.05
2018-10-16T10:53:07.639Z,55.64
2018-10-16T10:54:07.627Z,59.26
2018-10-16T10:55:07.620Z,57.12
2018-10-16T10:56:07.624Z,58.00
2018-10-16T10:57:07.853Z,57.06
2018-10-16T10:58:07.611Z,56.76
2018-10-16T10:59:07.601Z,57.25
2018-10-16T11:00:07.595Z,56.28
2018-10-16T11:01:07.603Z,57.96
2018-10-16T11:02:07.585Z,57.86
2018-10-16T11:03:07.630Z,57.76
2018-10-16T11:04:07.577Z,52.62
2018-10-16T11:05:07.578Z,53.30
2018-10-16T11:06:07.567Z,57.28
2018-10-16T11:07:07.560Z,54.17
2018-10-16T11:08:07.556Z,53.49
2018-10-16T11:09:07.648Z,56.50
2018-10-16T11:10:07.550Z,53.78
2018-10-16T11:11:07.547Z,57.25
2018-10-16T11:12:07.537Z,57.06
2018-10-16T11:13:07.531Z,54.46
2018-10-16T11:14:07.539Z,58.15
2018-10-16T11:15:07.613Z,56.50
2018-10-16T11:16:07.518Z,54.14
2018-10-16T11:17:07.525Z,57.28
2018-10-16T11:18:07.512Z,57.37
2018-10-16T11:19:07.509Z,57.28
2018-10-16T11:20:07.505Z,56.62
2018-10-16T11:21:07.552Z,57.31
2018-10-16T11:22:07.499Z,57.14
2018-10-16T11:23:07.493Z,53.45
2018-10-16T11:24:07.484Z,54.32
2018-10-16T11:25:07.499Z,51.87
2018-10-16T11:26:07.484Z,51.67
2018-10-16T11:27:07.522Z,53.30
2018-10-16T11:28:07.475Z,51.35
2018-10-16T11:29:07.465Z,55.73
2018-10-16T11:30:07.530Z,54.56
2018-10-16T11:31:07.468Z,54.07
2018-10-16T11:32:07.457Z,53.47
2018-10-16T11:33:07.527Z,54.44
2018-10-16T11:34:07.448Z,56.70
2018-10-16T11:35:07.439Z,53.10
2018-10-16T11:36:07.449Z,51.93
2018-10-16T11:37:07.500Z,55.04
2018-10-16T11:38:07.433Z,55.33
2018-10-16T11:39:07.501Z,53.59
2018-10-16T11:40:07.423Z,55.33
2018-10-16T11:41:07.431Z,54.44
2018-10-16T11:42:07.419Z,54.44
2018-10-16T11:43:07.414Z,54.50
2018-10-16T11:44:07.414Z,55.67
2018-10-16T11:45:07.479Z,56.37
2018-10-16T11:46:07.399Z,57.73
2018-10-16T11:47:07.394Z,58.54
2018-10-16T11:48:07.391Z,53.88
2018-10-16T11:49:07.388Z,52.94
2018-10-16T11:50:07.419Z,52.64
2018-10-16T11:51:07.378Z,51.57
2018-10-16T11:52:07.399Z,54.20
2018-10-16T11:53:07.378Z,52.45
2018-10-16T11:54:07.368Z,53.95
2018-10-16T11:55:07.366Z,54.14
2018-10-16T11:56:07.386Z,54.53
2018-10-16T11:57:07.359Z,54.53
2018-10-16T11:58:07.366Z,57.18
2018-10-16T11:59:07.364Z,55.82
2018-10-16T12:00:07.354Z,55.33
2018-10-16T12:01:07.347Z,54.07
2018-10-16T12:02:07.385Z,56.98
2018-10-16T12:03:07.340Z,55.65
2018-10-16T12:04:07.336Z,54.66
2018-10-16T12:05:07.354Z,56.50
2018-10-16T12:06:07.342Z,55.63
2018-10-16T12:07:07.431Z,53.97
2018-10-16T12:08:07.323Z,53.00
2018-10-16T12:09:07.320Z,54.17
2018-10-16T12:10:07.324Z,57.28
2018-10-16T12:11:07.356Z,57.18
2018-10-16T12:12:07.308Z,56.82
2018-10-16T12:13:07.342Z,54.20
2018-10-16T12:14:07.364Z,52.45
2018-10-16T12:15:07.305Z,53.03
2018-10-16T12:16:07.301Z,53.03
2018-10-16T12:17:07.293Z,52.96
2018-10-16T12:18:07.289Z,56.95
2018-10-16T12:19:07.338Z,52.57
2018-10-16T12:20:07.379Z,52.35
2018-10-16T12:21:07.352Z,54.00
2018-10-16T12:22:07.278Z,54.27
2018-10-16T12:23:07.274Z,57.76
2018-10-16T12:24:07.292Z,54.97
2018-10-16T12:25:07.288Z,54.68
2018-10-16T12:26:07.265Z,52.42
2018-10-16T12:27:07.336Z,53.32
2018-10-16T12:28:07.257Z,52.35
2018-10-16T12:29:07.322Z,54.20
2018-10-16T12:30:07.255Z,53.03
2018-10-16T12:31:07.324Z,52.74
2018-10-16T12:32:07.272Z,52.13
2018-10-16T12:33:07.318Z,52.62
2018-10-16T12:34:07.247Z,55.07
2018-10-16T12:35:07.242Z,53.49
2018-10-16T12:36:07.236Z,53.97
2018-10-16T12:37:07.265Z,53.42
2018-10-16T12:38:07.236Z,55.55
2018-10-16T12:39:07.260Z,54.03
2018-10-16T12:40:07.273Z,53.03
2018-10-16T12:41:07.238Z,55.17
2018-10-16T12:42:07.237Z,57.23
2018-10-16T12:43:07.239Z,54.03
2018-10-16T12:44:07.216Z,57.07
2018-10-16T12:45:07.319Z,52.69
2018-10-16T12:46:07.281Z,53.47
2018-10-16T12:47:07.267Z,54.54
2018-10-16T12:48:07.258Z,51.82
2018-10-16T12:49:07.201Z,54.35
2018-10-16T12:50:07.213Z,51.92
2018-10-16T12:51:07.228Z,52.59
2018-10-16T12:52:07.191Z,55.39